Terminal Aerodrome Forecast
Issued by NWS

Home | Current Version | Previous Version | Text Only | Print | Product List | Glossary Off
Versions: 1 2 3 4 5 6 7 8 9 10 11 12 13

000
FTUS43 KMPX 202336
TAFRWF
TAF
KRWF 202336Z 2100/2124 33006KT P6SM SCT120
     FM210200 25003KT P6SM SKC
     FM211500 32012G18KT P6SM FEW150=

USA.gov is the U.S. government's official web portal to all federal, state and local government web resources and services.